MSR980 HECA-HEGN
Flight info
| Callsign | MSR980 |
|---|---|
| Flight time | N/A |
| Altitude | 31000 |
| Route | CVO L315 SOKOT SOKOT1A |
| Aircraft | A343/H-SDE2E3FGHIJ4J5M1RWXY/LB1D1 |
Departure
| Time | 2026-05-05 20:06 |
|---|---|
| Airport | Cairo International Airport (HECA) |
Arrival
| Time | N/A |
|---|---|
| Airport | Hurghada International Airport (HEGN) |
| Time | Latitude | Longitude | Altitude | Speed | Heading |
|---|---|---|---|---|---|
| 2026-05-05 19:40 | 30.10738 | 31.39694 | 374 ft | 0 kts | 256° |
| 2026-05-05 19:52 | 30.10739 | 31.39697 | 374 ft | 2 kts | 256° |
| 2026-05-05 19:53 | 30.10745 | 31.39721 | 374 ft | 3 kts | 254° |
| 2026-05-05 19:53 | 30.10751 | 31.39746 | 376 ft | 3 kts | 255° |
| 2026-05-05 19:53 | 30.10756 | 31.39768 | 375 ft | 3 kts | 239° |
| 2026-05-05 19:53 | 30.10767 | 31.39780 | 374 ft | 3 kts | 174° |
| 2026-05-05 19:54 | 30.10788 | 31.39773 | 374 ft | 3 kts | 157° |
| 2026-05-05 19:54 | 30.10806 | 31.39765 | 374 ft | 1 kts | 166° |
| 2026-05-05 19:54 | 30.10807 | 31.39765 | 374 ft | 0 kts | 166° |
| 2026-05-05 19:57 | 30.10805 | 31.39765 | 374 ft | 1 kts | 166° |
| 2026-05-05 19:57 | 30.10789 | 31.39770 | 374 ft | 4 kts | 166° |
| 2026-05-05 19:58 | 30.10746 | 31.39782 | 374 ft | 8 kts | 166° |
| 2026-05-05 19:58 | 30.10677 | 31.39803 | 376 ft | 12 kts | 166° |
| 2026-05-05 19:58 | 30.10587 | 31.39829 | 377 ft | 14 kts | 166° |
| 2026-05-05 19:58 | 30.10498 | 31.39857 | 381 ft | 13 kts | 164° |
| 2026-05-05 19:59 | 30.10415 | 31.39853 | 384 ft | 12 kts | 210° |
| 2026-05-05 19:59 | 30.10351 | 31.39783 | 385 ft | 13 kts | 225° |
| 2026-05-05 19:59 | 30.10297 | 31.39710 | 389 ft | 10 kts | 226° |
| 2026-05-05 19:59 | 30.10246 | 31.39647 | 391 ft | 11 kts | 227° |
| 2026-05-05 20:00 | 30.10214 | 31.39608 | 392 ft | 5 kts | 227° |
| 2026-05-05 20:00 | 30.10189 | 31.39583 | 393 ft | 5 kts | 212° |
| 2026-05-05 20:00 | 30.10156 | 31.39577 | 393 ft | 5 kts | 178° |
| 2026-05-05 20:00 | 30.10125 | 31.39589 | 393 ft | 4 kts | 147° |
| 2026-05-05 20:01 | 30.10094 | 31.39612 | 393 ft | 6 kts | 147° |
| 2026-05-05 20:01 | 30.10058 | 31.39650 | 393 ft | 8 kts | 134° |
| 2026-05-05 20:01 | 30.10015 | 31.39702 | 392 ft | 10 kts | 134° |
| 2026-05-05 20:01 | 30.10008 | 31.39712 | 392 ft | 0 kts | 126° |
| 2026-05-05 20:02 | 30.10008 | 31.39714 | 392 ft | 0 kts | 116° |
| 2026-05-05 20:02 | 30.10007 | 31.39717 | 392 ft | 0 kts | 108° |
| 2026-05-05 20:05 | 30.10003 | 31.39732 | 392 ft | 3 kts | 107° |
| 2026-05-05 20:05 | 30.09998 | 31.39776 | 392 ft | 9 kts | 97° |
| 2026-05-05 20:05 | 30.10011 | 31.39877 | 393 ft | 17 kts | 67° |
| 2026-05-05 20:05 | 30.10098 | 31.40003 | 393 ft | 24 kts | 48° |
| 2026-05-05 20:06 | 30.10320 | 31.40301 | 390 ft | 81 kts | 49° |
| 2026-05-05 20:06 | 30.10824 | 31.40965 | 392 ft | 137 kts | 50° |
| 2026-05-05 20:06 | 30.11551 | 31.41926 | 406 ft | 179 kts | 47° |
| 2026-05-05 20:06 | 30.12363 | 31.43068 | 996 ft | 182 kts | 49° |
| 2026-05-05 20:07 | 30.13142 | 31.44210 | 1650 ft | 185 kts | 50° |
| 2026-05-05 20:07 | 30.13889 | 31.45462 | 2317 ft | 196 kts | 64° |
| 2026-05-05 20:07 | 30.14038 | 31.47051 | 2956 ft | 208 kts | 105° |
| 2026-05-05 20:07 | 30.13168 | 31.48326 | 3647 ft | 209 kts | 157° |
| 2026-05-05 20:08 | 30.11767 | 31.48388 | 4415 ft | 201 kts | 200° |
| 2026-05-05 20:08 | 30.10411 | 31.47999 | 5218 ft | 205 kts | 198° |
| 2026-05-05 20:08 | 30.08975 | 31.47539 | 5703 ft | 227 kts | 199° |
| 2026-05-05 20:08 | 30.07316 | 31.47229 | 6176 ft | 256 kts | 181° |
| 2026-05-05 20:09 | 30.05546 | 31.47736 | 7014 ft | 269 kts | 159° |
| 2026-05-05 20:09 | 30.03861 | 31.48751 | 7939 ft | 277 kts | 150° |
| 2026-05-05 20:09 | 30.02246 | 31.50013 | 8850 ft | 284 kts | 146° |
| 2026-05-05 20:09 | 30.00655 | 31.51399 | 9744 ft | 289 kts | 144° |
| 2026-05-05 20:10 | 29.99044 | 31.52842 | 10498 ft | 300 kts | 144° |
| 2026-05-05 20:10 | 29.97921 | 31.53837 | 10775 ft | 314 kts | 144° |
| 2026-05-05 20:10 | 29.96122 | 31.55397 | 11177 ft | 333 kts | 145° |
| 2026-05-05 20:10 | 29.93567 | 31.57553 | 12023 ft | 346 kts | 146° |
| 2026-05-05 20:11 | 29.92272 | 31.58645 | 12498 ft | 350 kts | 143° |
| 2026-05-05 20:11 | 29.90312 | 31.60341 | 13222 ft | 356 kts | 143° |
| 2026-05-05 20:11 | 29.88322 | 31.62065 | 13926 ft | 360 kts | 143° |
| 2026-05-05 20:11 | 29.86296 | 31.63796 | 14646 ft | 365 kts | 144° |
| 2026-05-05 20:12 | 29.84235 | 31.65528 | 15364 ft | 369 kts | 144° |
| 2026-05-05 20:12 | 29.82154 | 31.67254 | 16063 ft | 373 kts | 144° |
| 2026-05-05 20:12 | 29.80034 | 31.68999 | 16753 ft | 377 kts | 144° |
| 2026-05-05 20:12 | 29.77886 | 31.70761 | 17442 ft | 381 kts | 144° |
| 2026-05-05 20:13 | 29.75715 | 31.72539 | 18097 ft | 385 kts | 144° |
| 2026-05-05 20:13 | 29.73522 | 31.74333 | 18752 ft | 389 kts | 144° |
| 2026-05-05 20:13 | 29.71309 | 31.76145 | 19379 ft | 392 kts | 144° |
| 2026-05-05 20:13 | 29.69031 | 31.77870 | 20035 ft | 390 kts | 160° |
| 2026-05-05 20:14 | 29.66610 | 31.79227 | 20621 ft | 387 kts | 163° |
| 2026-05-05 20:14 | 29.64156 | 31.80669 | 20476 ft | 406 kts | 160° |
| 2026-05-05 20:14 | 29.61622 | 31.82249 | 20371 ft | 423 kts | 159° |
| 2026-05-05 20:14 | 29.58990 | 31.83754 | 20851 ft | 422 kts | 163° |
| 2026-05-05 20:15 | 29.56271 | 31.84920 | 21584 ft | 414 kts | 169° |
| 2026-05-05 20:15 | 29.53520 | 31.85871 | 22087 ft | 412 kts | 173° |
| 2026-05-05 20:15 | 29.50750 | 31.86792 | 22306 ft | 418 kts | 167° |
| 2026-05-05 20:15 | 29.48088 | 31.88131 | 22734 ft | 419 kts | 161° |
| 2026-05-05 20:16 | 29.45545 | 31.89768 | 23148 ft | 420 kts | 156° |
| 2026-05-05 20:16 | 29.43062 | 31.91540 | 23319 ft | 422 kts | 159° |
| 2026-05-05 20:16 | 29.40578 | 31.93374 | 23426 ft | 426 kts | 156° |
| 2026-05-05 20:16 | 29.38132 | 31.95303 | 23648 ft | 427 kts | 155° |
| 2026-05-05 20:17 | 29.35678 | 31.97104 | 23999 ft | 423 kts | 161° |
| 2026-05-05 20:17 | 29.33112 | 31.98807 | 23911 ft | 430 kts | 158° |
| 2026-05-05 20:17 | 29.30599 | 32.00690 | 24122 ft | 431 kts | 155° |
| 2026-05-05 20:17 | 29.28136 | 32.02648 | 24353 ft | 431 kts | 155° |
| 2026-05-05 20:18 | 29.25688 | 32.04646 | 24502 ft | 433 kts | 154° |
| 2026-05-05 20:18 | 29.23253 | 32.06683 | 24645 ft | 434 kts | 154° |
| 2026-05-05 20:18 | 29.20821 | 32.08740 | 24801 ft | 435 kts | 154° |
| 2026-05-05 20:18 | 29.18416 | 32.10789 | 24944 ft | 436 kts | 153° |
| 2026-05-05 20:19 | 29.15988 | 32.12864 | 25085 ft | 437 kts | 153° |
| 2026-05-05 20:19 | 29.13599 | 32.14909 | 25226 ft | 438 kts | 153° |
| 2026-05-05 20:19 | 29.11151 | 32.17018 | 25422 ft | 437 kts | 153° |
| 2026-05-05 20:19 | 29.08715 | 32.19104 | 25573 ft | 438 kts | 153° |
| 2026-05-05 20:20 | 29.06274 | 32.21190 | 25684 ft | 438 kts | 153° |
| 2026-05-05 20:20 | 29.03830 | 32.23278 | 25831 ft | 439 kts | 153° |
| 2026-05-05 20:20 | 29.01314 | 32.25240 | 26029 ft | 436 kts | 160° |
| 2026-05-05 20:20 | 28.98659 | 32.26847 | 26353 ft | 428 kts | 163° |
| 2026-05-05 20:21 | 28.96078 | 32.28563 | 26272 ft | 432 kts | 154° |
| 2026-05-05 20:21 | 28.93603 | 32.30561 | 26152 ft | 438 kts | 151° |
| 2026-05-05 20:21 | 28.91282 | 32.32804 | 26485 ft | 431 kts | 158° |
| 2026-05-05 20:21 | 28.88728 | 32.34484 | 26822 ft | 420 kts | 165° |
| 2026-05-05 20:22 | 28.86147 | 32.36121 | 26450 ft | 430 kts | 162° |
| 2026-05-05 20:22 | 28.83580 | 32.37942 | 26142 ft | 439 kts | 157° |
| 2026-05-05 20:22 | 28.81213 | 32.39888 | 26114 ft | 443 kts | 152° |
| 2026-05-05 20:22 | 28.78972 | 32.42019 | 26162 ft | 445 kts | 148° |
| 2026-05-05 20:23 | 28.76740 | 32.44479 | 26241 ft | 447 kts | 143° |
| 2026-05-05 20:23 | 28.74594 | 32.47025 | 26531 ft | 443 kts | 146° |
| 2026-05-05 20:23 | 28.72338 | 32.49412 | 26507 ft | 444 kts | 149° |
| 2026-05-05 20:23 | 28.69977 | 32.51701 | 26504 ft | 446 kts | 150° |
| 2026-05-05 20:24 | 28.67568 | 32.53928 | 26637 ft | 446 kts | 152° |
| 2026-05-05 20:24 | 28.65111 | 32.56088 | 26729 ft | 446 kts | 155° |
| 2026-05-05 20:24 | 28.62480 | 32.57926 | 26925 ft | 442 kts | 165° |
| 2026-05-05 20:24 | 28.59728 | 32.59547 | 26705 ft | 450 kts | 159° |
| 2026-05-05 20:25 | 28.57086 | 32.61465 | 26867 ft | 450 kts | 154° |
| 2026-05-05 20:25 | 28.54600 | 32.63629 | 27015 ft | 450 kts | 150° |
| 2026-05-05 20:25 | 28.52269 | 32.65993 | 27153 ft | 450 kts | 147° |
| 2026-05-05 20:25 | 28.49963 | 32.68375 | 27323 ft | 447 kts | 150° |
| 2026-05-05 20:26 | 28.47581 | 32.70656 | 27300 ft | 449 kts | 153° |
| 2026-05-05 20:26 | 28.45188 | 32.72935 | 27413 ft | 450 kts | 146° |
| 2026-05-05 20:26 | 28.42842 | 32.75205 | 27772 ft | 448 kts | 147° |